METAR Data
IDs: Format: Raw Decoded Include TAF

Data at: 1352 UTC 27 Nov 2021

ZYTX 271330Z 16004MPS 9999 SCT030 03/M05 Q1032 NOSIG